createdAt,value
2023-04-18T00:01:42.633Z,10.98
2023-04-18T00:04:10.664Z,11.32
2023-04-18T00:06:38.775Z,11.75
2023-04-18T00:09:06.816Z,11.42
2023-04-18T00:11:34.949Z,11.13
2023-04-18T00:14:04.378Z,11.17
2023-04-18T00:16:33.036Z,11.42
2023-04-18T00:19:02.304Z,11.41
2023-04-18T00:21:30.080Z,11.08
2023-04-18T00:23:57.876Z,11.11
2023-04-18T00:26:25.786Z,11.27
2023-04-18T00:28:54.405Z,11.13
2023-04-18T00:31:23.638Z,11.46
2023-04-18T00:33:51.873Z,11.54
2023-04-18T00:36:19.620Z,11.64
2023-04-18T00:38:47.650Z,11.87
2023-04-18T00:41:16.486Z,11.46
2023-04-18T00:43:44.389Z,11.58
2023-04-18T00:46:12.116Z,11.66
2023-04-18T00:48:41.582Z,11.29
2023-04-18T00:51:10.811Z,11.59
2023-04-18T00:53:38.906Z,11.66
2023-04-18T00:56:07.521Z,11.46
2023-04-18T00:58:35.869Z,11.34
2023-04-18T01:01:03.813Z,11.67
2023-04-18T01:03:33.053Z,11.72
2023-04-18T01:06:02.473Z,11.51
2023-04-18T01:08:30.532Z,11.52
2023-04-18T01:10:59.441Z,11.23
2023-04-18T01:13:27.257Z,11.54
2023-04-18T01:15:55.668Z,11.10
2023-04-18T01:18:24.369Z,11.32
2023-04-18T01:20:56.985Z,11.31
2023-04-18T01:23:26.330Z,11.15
2023-04-18T01:25:55.382Z,11.05
2023-04-18T01:28:27.800Z,11.04
2023-04-18T01:30:57.062Z,11.22
2023-04-18T01:33:24.927Z,11.10
2023-04-18T01:35:52.677Z,10.92
2023-04-18T01:38:20.496Z,11.19
2023-04-18T01:40:48.656Z,11.24
2023-04-18T01:43:17.711Z,11.45
2023-04-18T01:45:45.414Z,11.28
2023-04-18T01:48:13.170Z,10.83
2023-04-18T01:50:42.931Z,10.70
2023-04-18T01:53:11.709Z,11.19
2023-04-18T01:55:39.452Z,11.05
2023-04-18T01:58:07.443Z,11.26
2023-04-18T02:00:38.087Z,11.24
2023-04-18T02:03:06.799Z,11.03
2023-04-18T02:05:34.688Z,11.31
2023-04-18T02:08:02.506Z,11.05
2023-04-18T02:10:30.300Z,10.89
2023-04-18T02:12:58.114Z,11.33
2023-04-18T02:15:26.299Z,10.67
2023-04-18T02:17:55.575Z,11.00
2023-04-18T02:20:26.429Z,11.27
2023-04-18T02:22:54.626Z,11.21
2023-04-18T02:25:27.592Z,10.74
2023-04-18T02:27:56.029Z,10.70
2023-04-18T02:30:24.431Z,10.87
2023-04-18T02:32:52.998Z,10.87
2023-04-18T02:35:26.872Z,10.80
2023-04-18T02:37:54.744Z,10.52
2023-04-18T02:40:22.499Z,10.80
2023-04-18T02:42:50.385Z,10.55
2023-04-18T02:45:18.308Z,10.65
2023-04-18T02:47:54.265Z,10.77
2023-04-18T02:50:23.606Z,10.82
2023-04-18T02:52:53.493Z,10.47
2023-04-18T02:55:22.989Z,10.40
2023-04-18T02:57:52.847Z,10.60
2023-04-18T03:00:57.075Z,10.28
2023-04-18T03:03:43.497Z,10.22
2023-04-18T03:06:22.543Z,10.17
2023-04-18T03:08:51.896Z,10.05
2023-04-18T03:11:19.948Z,9.82
2023-04-18T03:13:47.848Z,10.35
2023-04-18T03:16:16.657Z,10.66
2023-04-18T03:18:44.927Z,10.33
2023-04-18T03:21:13.828Z,9.90
2023-04-18T03:23:42.446Z,10.42
2023-04-18T03:26:14.808Z,10.03
2023-04-18T03:28:45.600Z,10.23
2023-04-18T03:31:13.493Z,10.70
2023-04-18T03:33:45.632Z,9.99
2023-04-18T03:36:15.514Z,10.06
2023-04-18T03:38:43.419Z,9.69
2023-04-18T03:41:11.656Z,9.85
2023-04-18T03:43:41.282Z,10.02
2023-04-18T03:46:09.140Z,9.53
2023-04-18T03:48:37.652Z,9.37
2023-04-18T03:51:11.595Z,9.66
2023-04-18T03:53:43.173Z,10.01
2023-04-18T03:56:11.256Z,10.24
2023-04-18T03:58:49.280Z,10.04
2023-04-18T04:01:17.754Z,9.71
2023-04-18T04:03:45.866Z,9.80
2023-04-18T04:06:14.133Z,9.94
2023-04-18T04:08:41.984Z,9.71
2023-04-18T04:11:09.787Z,9.86
2023-04-18T04:13:37.532Z,9.97
2023-04-18T04:16:08.493Z,9.68
2023-04-18T04:18:37.163Z,9.58
2023-04-18T04:21:06.681Z,9.96
2023-04-18T04:23:48.892Z,10.18
2023-04-18T04:26:37.208Z,9.55
2023-04-18T04:29:11.139Z,10.03
2023-04-18T04:31:41.776Z,10.07
2023-04-18T04:34:09.741Z,10.02
2023-04-18T04:36:37.502Z,10.16
2023-04-18T04:39:08.645Z,9.86
2023-04-18T04:41:50.072Z,9.85
2023-04-18T04:44:21.923Z,9.85
2023-04-18T04:46:52.420Z,9.80
2023-04-18T04:49:24.323Z,9.91
2023-04-18T04:51:54.173Z,9.84
2023-04-18T04:54:22.095Z,9.85
2023-04-18T04:56:52.600Z,9.90
2023-04-18T04:59:25.939Z,9.81
2023-04-18T05:01:55.181Z,9.70
2023-04-18T05:04:26.076Z,9.75
2023-04-18T05:06:56.584Z,9.36
2023-04-18T05:09:24.465Z,9.48
2023-04-18T05:11:52.319Z,10.11
2023-04-18T05:14:20.816Z,10.20
2023-04-18T05:16:48.668Z,10.01
2023-04-18T05:19:17.841Z,9.84
2023-04-18T05:21:45.563Z,9.92
2023-04-18T05:24:13.580Z,9.74
2023-04-18T05:26:41.555Z,9.84
2023-04-18T05:29:09.417Z,9.61
2023-04-18T05:31:37.311Z,9.80
2023-04-18T05:34:05.010Z,9.91
2023-04-18T05:36:34.350Z,9.96
2023-04-18T05:39:02.120Z,9.62
2023-04-18T05:41:30.106Z,9.97
2023-04-18T05:44:04.683Z,10.05
2023-04-18T05:46:34.111Z,9.68
2023-04-18T05:49:01.883Z,10.04
2023-04-18T05:51:29.706Z,10.56
2023-04-18T05:53:58.898Z,10.61
2023-04-18T05:56:26.703Z,10.47
2023-04-18T05:58:54.703Z,10.34
2023-04-18T06:01:22.899Z,10.60
2023-04-18T06:03:50.871Z,10.31
2023-04-18T06:06:19.693Z,10.46
2023-04-18T06:08:47.391Z,10.37
2023-04-18T06:11:16.742Z,10.62
2023-04-18T06:13:44.469Z,10.77
2023-04-18T06:16:12.662Z,11.06
2023-04-18T06:18:40.774Z,11.08
2023-04-18T06:21:08.597Z,10.96
2023-04-18T06:23:37.053Z,11.64
2023-04-18T06:26:04.942Z,11.50
2023-04-18T06:28:34.430Z,11.47
2023-04-18T06:31:02.639Z,11.79
2023-04-18T06:33:31.030Z,11.31
2023-04-18T06:35:59.265Z,11.37
2023-04-18T06:38:27.321Z,11.38
2023-04-18T06:40:55.128Z,11.19
2023-04-18T06:43:23.309Z,11.22
2023-04-18T06:45:53.058Z,11.35
2023-04-18T06:48:21.001Z,10.87
2023-04-18T06:50:48.703Z,11.33
2023-04-18T06:53:16.518Z,11.28
2023-04-18T06:55:44.324Z,11.35
2023-04-18T06:58:13.751Z,10.91
2023-04-18T07:00:41.685Z,10.90
2023-04-18T07:03:13.644Z,11.59
2023-04-18T07:05:41.949Z,11.43
2023-04-18T07:08:10.681Z,11.47
2023-04-18T07:10:38.457Z,11.64
2023-04-18T07:13:06.419Z,11.16
2023-04-18T07:15:35.418Z,11.16
2023-04-18T07:18:03.310Z,11.38
2023-04-18T07:20:32.469Z,11.26
2023-04-18T07:23:00.269Z,11.67
2023-04-18T07:25:28.074Z,11.65
2023-04-18T07:27:56.000Z,11.56
2023-04-18T07:30:24.045Z,12.04
2023-04-18T07:32:53.561Z,12.27
2023-04-18T07:35:21.747Z,12.12
2023-04-18T07:37:50.912Z,12.20
2023-04-18T07:40:19.084Z,11.74
2023-04-18T07:42:46.818Z,12.61
2023-04-18T07:45:15.427Z,12.24
2023-04-18T07:47:43.244Z,12.13
2023-04-18T07:50:12.211Z,12.72
2023-04-18T07:52:42.919Z,12.83
2023-04-18T07:55:12.151Z,12.54
2023-04-18T07:57:40.020Z,12.74
2023-04-18T08:00:09.430Z,12.74
2023-04-18T08:02:43.345Z,12.76
2023-04-18T08:05:11.817Z,12.84
2023-04-18T08:07:39.730Z,12.60
2023-04-18T08:10:08.759Z,12.88
2023-04-18T08:12:38.266Z,13.08
2023-04-18T08:15:06.976Z,13.11
2023-04-18T08:17:34.686Z,12.97
2023-04-18T08:20:09.811Z,13.53
2023-04-18T08:22:53.790Z,13.81
2023-04-18T08:25:28.409Z,14.59
2023-04-18T08:27:57.823Z,14.33
2023-04-18T08:30:25.759Z,14.15
2023-04-18T08:32:56.392Z,15.24
2023-04-18T08:35:24.422Z,15.51
2023-04-18T08:37:52.262Z,14.97
2023-04-18T08:40:20.308Z,14.95
2023-04-18T08:42:51.268Z,15.74
2023-04-18T08:45:20.864Z,15.55
2023-04-18T08:47:48.787Z,15.67
2023-04-18T08:50:16.573Z,15.43
2023-04-18T08:52:47.418Z,15.18
2023-04-18T08:55:16.073Z,15.76
2023-04-18T08:57:45.406Z,14.36
2023-04-18T09:00:14.527Z,14.29
2023-04-18T09:02:44.832Z,13.67
2023-04-18T09:05:14.537Z,13.96
2023-04-18T09:07:43.098Z,14.19
2023-04-18T09:10:12.391Z,14.65
2023-04-18T09:12:50.088Z,14.33
2023-04-18T09:15:20.449Z,14.38
2023-04-18T09:17:53.099Z,14.39
2023-04-18T09:20:30.738Z,14.60
2023-04-18T09:23:00.678Z,14.50
2023-04-18T09:25:34.441Z,13.95
2023-04-18T09:28:03.045Z,14.24
2023-04-18T09:30:33.131Z,14.37
2023-04-18T09:33:06.384Z,14.12
2023-04-18T09:35:34.933Z,14.11
2023-04-18T09:38:02.725Z,14.37
2023-04-18T09:40:31.164Z,15.03
2023-04-18T09:42:59.168Z,15.10
2023-04-18T09:45:29.762Z,14.90
2023-04-18T09:47:58.270Z,14.62
2023-04-18T09:50:28.206Z,14.91
2023-04-18T09:52:56.235Z,15.03
2023-04-18T09:55:24.339Z,15.14
2023-04-18T09:57:54.645Z,15.73
2023-04-18T10:00:28.124Z,15.83
2023-04-18T10:02:59.355Z,16.24
2023-04-18T10:05:35.490Z,16.50
2023-04-18T10:08:04.296Z,16.95
2023-04-18T10:10:32.070Z,16.66
2023-04-18T10:13:02.698Z,16.57
2023-04-18T10:15:32.100Z,16.60
2023-04-18T10:18:05.752Z,16.57
2023-04-18T10:20:36.276Z,16.36
2023-04-18T10:23:35.658Z,16.53
2023-04-18T10:26:04.798Z,16.71
2023-04-18T10:28:51.232Z,16.56
2023-04-18T10:31:19.051Z,17.02
2023-04-18T10:34:00.662Z,17.01
2023-04-18T10:36:33.181Z,17.46
2023-04-18T10:39:03.208Z,18.28
2023-04-18T10:41:32.011Z,18.82
2023-04-18T10:44:22.170Z,18.62
2023-04-18T10:47:22.281Z,18.39
2023-04-18T10:49:58.752Z,18.08
2023-04-18T10:52:29.326Z,17.70
2023-04-18T10:55:14.073Z,17.71
2023-04-18T10:57:43.672Z,17.82
2023-04-18T11:00:13.921Z,18.38
2023-04-18T11:02:48.772Z,18.19
2023-04-18T11:05:20.957Z,17.00
2023-04-18T11:07:50.404Z,17.03
2023-04-18T11:10:20.318Z,16.05
2023-04-18T11:12:48.475Z,15.81
2023-04-18T11:15:20.133Z,15.87
2023-04-18T11:18:03.912Z,16.41
2023-04-18T11:20:39.633Z,16.47
2023-04-18T11:23:21.378Z,15.84
2023-04-18T11:25:51.404Z,15.12
2023-04-18T11:28:20.916Z,15.33
2023-04-18T11:30:49.135Z,16.06
2023-04-18T11:33:17.296Z,16.39
2023-04-18T11:35:46.561Z,16.36
2023-04-18T11:38:18.546Z,16.25
2023-04-18T11:40:48.915Z,16.28
2023-04-18T11:43:22.122Z,16.28
2023-04-18T11:45:54.180Z,16.04
2023-04-18T11:48:22.510Z,16.12
2023-04-18T11:50:50.606Z,16.10
2023-04-18T11:53:35.553Z,16.07
2023-04-18T11:56:03.819Z,15.92
2023-04-18T11:58:33.031Z,15.72
2023-04-18T12:01:19.559Z,16.09
2023-04-18T12:04:01.149Z,16.09
2023-04-18T12:06:46.919Z,15.93
2023-04-18T12:09:17.731Z,16.26
2023-04-18T12:11:57.100Z,16.06
2023-04-18T12:14:24.952Z,16.69
2023-04-18T12:16:53.178Z,16.66
2023-04-18T12:19:27.756Z,16.27
2023-04-18T12:21:57.005Z,17.03
2023-04-18T12:24:26.756Z,16.39
2023-04-18T12:26:54.698Z,16.85
2023-04-18T12:29:24.469Z,16.80
2023-04-18T12:31:52.368Z,17.75
2023-04-18T12:34:20.282Z,17.14
2023-04-18T12:36:48.192Z,17.34
2023-04-18T12:39:16.269Z,17.00
2023-04-18T12:41:47.137Z,17.33
2023-04-18T12:44:17.356Z,17.46
2023-04-18T12:46:45.334Z,17.05
2023-04-18T12:49:13.215Z,17.52
2023-04-18T12:51:41.103Z,17.69
2023-04-18T12:54:08.960Z,18.00
2023-04-18T12:56:37.284Z,17.85
2023-04-18T12:59:06.434Z,17.48
2023-04-18T13:01:34.291Z,17.57
2023-04-18T13:04:11.578Z,17.76
2023-04-18T13:06:40.795Z,17.39
2023-04-18T13:09:09.291Z,17.19
2023-04-18T13:11:37.069Z,16.76
2023-04-18T13:14:08.580Z,17.15
2023-04-18T13:16:36.557Z,17.11
2023-04-18T13:19:04.333Z,17.63
2023-04-18T13:21:34.916Z,17.38
2023-04-18T13:24:05.001Z,17.00
2023-04-18T13:26:35.553Z,17.24
2023-04-18T13:29:03.589Z,17.54
2023-04-18T13:31:32.807Z,16.99
2023-04-18T13:34:00.603Z,16.95
2023-04-18T13:36:28.687Z,16.74
2023-04-18T13:38:58.856Z,17.06
2023-04-18T13:41:26.787Z,16.79
2023-04-18T13:43:56.084Z,17.31
2023-04-18T13:46:26.518Z,17.48
2023-04-18T13:48:56.044Z,17.58
2023-04-18T13:51:23.816Z,17.49
2023-04-18T13:53:51.658Z,17.99
2023-04-18T13:56:19.969Z,18.29
2023-04-18T13:58:47.728Z,18.55
2023-04-18T14:01:18.987Z,18.05
2023-04-18T14:03:47.636Z,18.02
2023-04-18T14:06:16.994Z,18.08
2023-04-18T14:08:44.842Z,17.37
2023-04-18T14:11:13.068Z,17.86
2023-04-18T14:13:43.589Z,17.32
2023-04-18T14:16:11.453Z,17.95
2023-04-18T14:18:39.400Z,17.74
2023-04-18T14:21:07.389Z,17.95
2023-04-18T14:23:36.908Z,17.63
2023-04-18T14:26:06.749Z,17.74
2023-04-18T14:28:34.564Z,18.05
2023-04-18T14:31:06.490Z,18.06
2023-04-18T14:33:34.788Z,16.93
2023-04-18T14:36:03.667Z,16.73
2023-04-18T14:38:31.444Z,16.68
2023-04-18T14:41:00.660Z,16.18
2023-04-18T14:43:37.706Z,16.09
2023-04-18T14:46:12.335Z,16.26
2023-04-18T14:48:41.370Z,16.57
2023-04-18T14:51:09.212Z,16.75
2023-04-18T14:53:36.967Z,16.95
2023-04-18T14:56:06.998Z,17.47
2023-04-18T14:58:34.816Z,16.91
2023-04-18T15:01:02.628Z,17.23
2023-04-18T15:03:30.648Z,17.33
2023-04-18T15:05:58.752Z,17.70
2023-04-18T15:08:32.712Z,17.76
2023-04-18T15:11:01.356Z,17.63
2023-04-18T15:13:30.822Z,17.16
2023-04-18T15:16:01.432Z,17.04
2023-04-18T15:18:29.498Z,17.32
2023-04-18T15:20:59.653Z,17.58
2023-04-18T15:23:27.573Z,17.03
2023-04-18T15:25:55.449Z,17.45
2023-04-18T15:28:23.370Z,17.46
2023-04-18T15:30:52.586Z,17.72
2023-04-18T15:33:21.139Z,16.57
2023-04-18T15:35:49.165Z,16.97
2023-04-18T15:38:16.941Z,17.29
2023-04-18T15:40:51.263Z,17.00
2023-04-18T15:43:19.006Z,16.68
2023-04-18T15:45:47.122Z,16.73
2023-04-18T15:48:16.311Z,17.19
2023-04-18T15:50:46.420Z,17.33
2023-04-18T15:53:16.271Z,17.88
2023-04-18T15:55:47.512Z,17.82
2023-04-18T15:58:15.343Z,17.33
2023-04-18T16:00:44.300Z,16.91
2023-04-18T16:03:12.275Z,16.73
2023-04-18T16:05:41.650Z,16.74
2023-04-18T16:08:09.832Z,16.61
2023-04-18T16:10:37.963Z,16.98
2023-04-18T16:13:06.675Z,16.51
2023-04-18T16:15:35.545Z,17.01
2023-04-18T16:18:03.551Z,16.90
2023-04-18T16:20:33.459Z,16.66
2023-04-18T16:23:02.760Z,16.85
2023-04-18T16:25:30.615Z,16.33
2023-04-18T16:27:58.371Z,16.61
2023-04-18T16:30:26.543Z,16.87
2023-04-18T16:32:55.991Z,17.18
2023-04-18T16:35:27.252Z,17.30
2023-04-18T16:37:55.051Z,17.21
2023-04-18T16:40:26.423Z,17.68
2023-04-18T16:42:54.238Z,18.10
2023-04-18T16:45:24.568Z,18.61
2023-04-18T16:47:52.504Z,18.85
2023-04-18T16:50:22.446Z,18.56
2023-04-18T16:52:50.558Z,18.59
2023-04-18T16:55:18.777Z,18.31
2023-04-18T16:57:47.982Z,18.19
2023-04-18T17:00:16.369Z,18.14
2023-04-18T17:02:45.434Z,18.32
2023-04-18T17:05:13.218Z,17.51
2023-04-18T17:07:41.081Z,16.73
2023-04-18T17:10:10.284Z,16.44
2023-04-18T17:12:38.126Z,16.45
2023-04-18T17:15:08.494Z,16.23
2023-04-18T17:17:36.405Z,16.62
2023-04-18T17:20:06.985Z,16.41
2023-04-18T17:22:34.747Z,16.37
2023-04-18T17:25:03.045Z,16.20
2023-04-18T17:27:31.248Z,15.98
2023-04-18T17:29:59.070Z,16.08
2023-04-18T17:32:29.690Z,15.66
2023-04-18T17:34:58.561Z,15.73
2023-04-18T17:37:26.597Z,15.57
2023-04-18T17:39:54.512Z,15.53
2023-04-18T17:42:22.350Z,15.45
2023-04-18T17:44:50.147Z,15.40
2023-04-18T17:47:21.036Z,15.43
2023-04-18T17:49:51.099Z,15.52
2023-04-18T17:52:21.426Z,15.31
2023-04-18T17:54:49.571Z,14.91
2023-04-18T17:57:17.374Z,15.22
2023-04-18T17:59:45.147Z,15.22
2023-04-18T18:02:13.279Z,15.36
2023-04-18T18:04:41.383Z,15.17
2023-04-18T18:07:10.736Z,15.14
2023-04-18T18:09:38.566Z,15.09
2023-04-18T18:12:09.744Z,14.99
2023-04-18T18:14:37.462Z,15.32
2023-04-18T18:17:05.791Z,15.19
2023-04-18T18:19:35.640Z,15.09
2023-04-18T18:22:07.094Z,14.87
2023-04-18T18:24:36.191Z,14.75
2023-04-18T18:27:03.999Z,14.87
2023-04-18T18:29:31.812Z,14.77
2023-04-18T18:31:59.680Z,14.61
2023-04-18T18:34:29.805Z,14.71
2023-04-18T18:37:00.581Z,14.92
2023-04-18T18:39:28.297Z,14.96
2023-04-18T18:41:58.465Z,14.58
2023-04-18T18:44:26.190Z,14.49
2023-04-18T18:46:56.403Z,14.83
2023-04-18T18:49:24.260Z,14.36
2023-04-18T18:51:52.026Z,14.49
2023-04-18T18:54:19.909Z,14.41
2023-04-18T18:56:47.605Z,14.57
2023-04-18T18:59:17.465Z,14.53
2023-04-18T19:01:45.608Z,14.43
2023-04-18T19:04:13.813Z,14.46
2023-04-18T19:06:41.890Z,14.93
2023-04-18T19:09:09.578Z,14.84
2023-04-18T19:11:37.302Z,14.69
2023-04-18T19:14:05.345Z,14.64
2023-04-18T19:16:36.097Z,14.64
2023-04-18T19:19:04.086Z,14.21
2023-04-18T19:21:34.809Z,14.36
2023-04-18T19:24:04.993Z,13.93
2023-04-18T19:26:32.783Z,14.37
2023-04-18T19:29:00.642Z,14.07
2023-04-18T19:31:28.510Z,14.29
2023-04-18T19:33:57.650Z,14.27
2023-04-18T19:36:26.337Z,14.26
2023-04-18T19:38:54.120Z,14.18
2023-04-18T19:41:22.020Z,14.00
2023-04-18T19:43:49.766Z,14.29
2023-04-18T19:46:17.717Z,14.15
2023-04-18T19:48:47.078Z,14.56
2023-04-18T19:51:16.153Z,14.40
2023-04-18T19:53:44.128Z,14.70
2023-04-18T19:56:14.169Z,14.62
2023-04-18T19:58:46.513Z,14.71
2023-04-18T20:01:15.406Z,14.70
2023-04-18T20:03:43.586Z,14.86
2023-04-18T20:06:17.124Z,14.83
2023-04-18T20:08:48.134Z,14.63
2023-04-18T20:11:15.934Z,14.61
2023-04-18T20:13:43.722Z,14.36
2023-04-18T20:16:18.507Z,14.59
2023-04-18T20:18:47.145Z,14.69
2023-04-18T20:21:16.706Z,14.31
2023-04-18T20:23:51.283Z,14.50
2023-04-18T20:26:19.333Z,14.72
2023-04-18T20:28:47.142Z,14.47
2023-04-18T20:31:14.965Z,14.30
2023-04-18T20:33:43.550Z,14.60
2023-04-18T20:36:13.992Z,14.66
2023-04-18T20:38:44.454Z,14.49
2023-04-18T20:41:16.656Z,14.66
2023-04-18T20:43:46.009Z,14.45
2023-04-18T20:46:20.979Z,14.24
2023-04-18T20:48:51.880Z,14.31
2023-04-18T20:51:19.620Z,14.22
2023-04-18T20:53:48.864Z,14.30
2023-04-18T20:57:07.860Z,14.03
2023-04-18T20:59:35.656Z,14.29
2023-04-18T21:02:03.558Z,14.24
2023-04-18T21:04:31.493Z,14.63
2023-04-18T21:06:59.535Z,14.40
2023-04-18T21:09:29.073Z,14.04
2023-04-18T21:11:58.316Z,13.85
2023-04-18T21:14:26.206Z,13.87
2023-04-18T21:16:54.004Z,13.73
2023-04-18T21:19:21.866Z,13.91
2023-04-18T21:21:49.622Z,13.79
2023-04-18T21:24:17.920Z,14.00
2023-04-18T21:26:49.594Z,13.61
2023-04-18T21:29:17.350Z,13.72
2023-04-18T21:31:45.312Z,13.91
2023-04-18T21:34:13.190Z,13.77
2023-04-18T21:36:41.029Z,13.94
2023-04-18T21:39:09.891Z,13.97
2023-04-18T21:41:37.634Z,13.21
2023-04-18T21:44:11.115Z,13.68
2023-04-18T21:46:38.871Z,13.88
2023-04-18T21:49:06.844Z,13.29
2023-04-18T21:51:34.556Z,13.23
2023-04-18T21:54:02.323Z,13.37
2023-04-18T21:56:32.641Z,13.98
2023-04-18T21:59:00.454Z,13.98
2023-04-18T22:01:29.572Z,13.97
2023-04-18T22:03:57.451Z,14.23
2023-04-18T22:06:25.886Z,13.85
2023-04-18T22:08:54.006Z,14.19
2023-04-18T22:11:23.596Z,13.71
2023-04-18T22:13:54.036Z,13.71
2023-04-18T22:16:22.841Z,13.72
2023-04-18T22:18:52.160Z,13.76
2023-04-18T22:21:19.826Z,13.50
2023-04-18T22:23:47.653Z,13.94
2023-04-18T22:26:15.413Z,13.90
2023-04-18T22:28:43.123Z,13.99
2023-04-18T22:31:10.913Z,14.06
2023-04-18T22:33:38.704Z,13.51
2023-04-18T22:36:08.367Z,13.45
2023-04-18T22:38:36.081Z,13.50
2023-04-18T22:41:03.795Z,14.00
2023-04-18T22:43:31.518Z,13.70
2023-04-18T22:45:59.214Z,13.85
2023-04-18T22:48:26.942Z,13.75
2023-04-18T22:50:55.224Z,14.09
2023-04-18T22:53:24.351Z,13.99
2023-04-18T22:55:52.022Z,13.65
2023-04-18T22:58:19.779Z,13.74
2023-04-18T23:00:47.438Z,13.48
2023-04-18T23:03:15.316Z,13.73
2023-04-18T23:05:43.212Z,13.36
2023-04-18T23:08:11.906Z,13.66
2023-04-18T23:10:40.978Z,13.55
2023-04-18T23:13:08.713Z,13.58
2023-04-18T23:15:36.649Z,13.81
2023-04-18T23:18:04.481Z,13.62
2023-04-18T23:20:32.219Z,13.30
2023-04-18T23:22:59.954Z,13.51
2023-04-18T23:25:27.774Z,13.61
2023-04-18T23:27:56.961Z,13.79
2023-04-18T23:30:24.788Z,13.62
2023-04-18T23:32:52.514Z,13.59
2023-04-18T23:35:20.330Z,13.86
2023-04-18T23:37:48.157Z,13.66
2023-04-18T23:40:15.869Z,13.96
2023-04-18T23:42:43.898Z,14.50
2023-04-18T23:45:13.618Z,13.88
2023-04-18T23:47:41.393Z,13.87
2023-04-18T23:50:10.393Z,14.27
2023-04-18T23:52:38.664Z,14.44
2023-04-18T23:55:07.218Z,14.53
2023-04-18T23:57:35.015Z,14.58
